createdAt,value
2018-08-09T00:01:10.174Z,6.37
2018-08-09T00:03:38.728Z,6.50
2018-08-09T00:06:07.202Z,5.87
2018-08-09T00:08:35.684Z,6.43
2018-08-09T00:11:04.136Z,5.97
2018-08-09T00:13:32.554Z,6.23
2018-08-09T00:16:01.140Z,6.03
2018-08-09T00:18:29.609Z,6.53
2018-08-09T00:20:58.056Z,6.13
2018-08-09T00:23:26.626Z,6.80
2018-08-09T00:25:55.008Z,6.50
2018-08-09T00:28:23.387Z,6.40
2018-08-09T00:30:51.905Z,6.53
2018-08-09T00:33:20.264Z,6.60
2018-08-09T00:35:52.238Z,6.50
2018-08-09T00:38:20.672Z,6.57
2018-08-09T00:40:49.099Z,6.47
2018-08-09T00:43:17.562Z,6.20
2018-08-09T00:45:46.047Z,6.07
2018-08-09T00:48:14.530Z,6.00
2018-08-09T00:50:42.968Z,6.17
2018-08-09T00:53:11.448Z,5.93
2018-08-09T00:55:39.836Z,6.20
2018-08-09T00:58:08.318Z,6.10
2018-08-09T01:00:36.780Z,6.23
2018-08-09T01:03:05.240Z,6.10
2018-08-09T01:05:33.608Z,6.10
2018-08-09T01:08:02.090Z,6.27
2018-08-09T01:10:32.525Z,5.80
2018-08-09T01:13:01.055Z,5.73
2018-08-09T01:15:29.474Z,6.07
2018-08-09T01:17:57.849Z,5.93
2018-08-09T01:20:26.269Z,5.97
2018-08-09T01:22:54.726Z,5.70
2018-08-09T01:25:23.180Z,6.07
2018-08-09T01:27:51.573Z,5.90
2018-08-09T01:30:20.005Z,5.87
2018-08-09T01:32:48.499Z,5.83
2018-08-09T01:35:17.290Z,5.70
2018-08-09T01:37:45.715Z,5.63
2018-08-09T01:40:14.154Z,5.80
2018-08-09T01:42:53.930Z,6.17
2018-08-09T01:45:22.444Z,5.90
2018-08-09T01:47:51.223Z,5.53
2018-08-09T01:50:19.674Z,6.07
2018-08-09T01:52:48.093Z,6.13
2018-08-09T01:55:16.480Z,5.70
2018-08-09T01:57:44.922Z,6.17
2018-08-09T02:00:13.418Z,5.50
2018-08-09T02:02:41.919Z,6.20
2018-08-09T02:05:10.883Z,6.07
2018-08-09T02:07:39.289Z,5.73
2018-08-09T02:10:07.879Z,6.30
2018-08-09T02:12:36.350Z,6.10
2018-08-09T02:15:04.962Z,6.20
2018-08-09T02:17:33.338Z,6.30
2018-08-09T02:20:01.730Z,6.37
2018-08-09T02:22:30.164Z,6.67
2018-08-09T02:24:59.146Z,5.87
2018-08-09T02:27:27.606Z,6.70
2018-08-09T02:29:56.033Z,6.00
2018-08-09T02:32:24.431Z,6.10
2018-08-09T02:34:52.845Z,5.43
2018-08-09T02:37:21.275Z,5.87
2018-08-09T02:39:50.426Z,6.63
2018-08-09T02:42:18.857Z,6.17
2018-08-09T02:44:47.362Z,6.67
2018-08-09T02:47:15.780Z,6.50
2018-08-09T02:49:44.254Z,6.30
2018-08-09T02:52:12.709Z,6.30
2018-08-09T02:54:41.253Z,6.60
2018-08-09T02:57:09.694Z,6.70
2018-08-09T02:59:39.199Z,6.70
2018-08-09T03:02:07.685Z,6.63
2018-08-09T03:04:36.163Z,6.70
2018-08-09T03:07:04.852Z,6.87
2018-08-09T03:09:37.086Z,6.77
2018-08-09T03:12:05.596Z,6.93
2018-08-09T03:14:34.115Z,7.17
2018-08-09T03:17:02.554Z,7.57
2018-08-09T03:19:30.972Z,7.83
2018-08-09T03:21:59.488Z,7.60
2018-08-09T03:24:28.002Z,7.63
2018-08-09T03:26:56.450Z,8.10
2018-08-09T03:29:24.934Z,8.23
2018-08-09T03:31:53.441Z,8.00
2018-08-09T03:34:21.862Z,8.37
2018-08-09T03:36:50.709Z,8.20
2018-08-09T03:39:19.212Z,8.77
2018-08-09T03:41:47.736Z,9.30
2018-08-09T03:44:16.134Z,9.17
2018-08-09T03:46:45.558Z,9.47
2018-08-09T03:49:16.026Z,8.93
2018-08-09T03:51:44.428Z,9.20
2018-08-09T03:54:12.937Z,8.97
2018-08-09T03:56:41.362Z,8.83
2018-08-09T03:59:09.986Z,8.83
2018-08-09T04:01:38.520Z,9.63
2018-08-09T04:04:07.140Z,9.80
2018-08-09T04:06:36.440Z,8.87
2018-08-09T04:09:07.570Z,9.10
2018-08-09T04:11:36.090Z,9.07
2018-08-09T04:14:05.126Z,8.97
2018-08-09T04:16:33.578Z,8.40
2018-08-09T04:19:02.106Z,8.00
2018-08-09T04:21:30.576Z,8.53
2018-08-09T04:23:59.054Z,8.47
2018-08-09T04:26:27.516Z,8.50
2018-08-09T04:28:56.886Z,8.60
2018-08-09T04:31:25.309Z,7.97
2018-08-09T04:33:53.814Z,8.10
2018-08-09T04:36:22.378Z,8.43
2018-08-09T04:38:50.821Z,8.20
2018-08-09T04:41:19.295Z,8.27
2018-08-09T04:43:47.809Z,9.23
2018-08-09T04:46:16.545Z,8.87
2018-08-09T04:48:45.046Z,8.90
2018-08-09T04:51:13.457Z,9.33
2018-08-09T04:53:41.865Z,9.40
2018-08-09T04:56:10.269Z,9.63
2018-08-09T04:58:38.645Z,9.83
2018-08-09T05:01:07.051Z,9.57
2018-08-09T05:03:35.515Z,9.60
2018-08-09T05:06:03.983Z,9.53
2018-08-09T05:08:32.476Z,9.43
2018-08-09T05:11:00.877Z,9.83
2018-08-09T05:13:30.252Z,10.00
2018-08-09T05:15:58.719Z,10.20
2018-08-09T05:18:27.124Z,10.20
2018-08-09T05:20:55.623Z,11.43
2018-08-09T05:23:24.037Z,11.40
2018-08-09T05:25:52.445Z,11.70
2018-08-09T05:28:20.880Z,11.40
2018-08-09T05:30:52.870Z,11.57
2018-08-09T05:33:21.206Z,11.83
2018-08-09T05:35:49.646Z,11.87
2018-08-09T05:38:18.032Z,12.10
2018-08-09T05:40:46.727Z,11.57
2018-08-09T05:43:15.190Z,12.17
2018-08-09T05:45:43.608Z,11.40
2018-08-09T05:48:12.004Z,11.77
2018-08-09T05:50:40.449Z,12.57
2018-08-09T05:53:09.840Z,12.80
2018-08-09T05:55:38.268Z,12.10
2018-08-09T05:58:07.694Z,12.03
2018-08-09T06:00:36.252Z,11.80
2018-08-09T06:03:04.631Z,12.20
2018-08-09T06:05:33.076Z,12.47
2018-08-09T06:08:01.455Z,13.13
2018-08-09T06:10:29.970Z,13.20
2018-08-09T06:12:58.662Z,13.47
2018-08-09T06:15:27.127Z,13.13
2018-08-09T06:17:55.608Z,13.73
2018-08-09T06:20:24.154Z,13.53
2018-08-09T06:22:52.616Z,13.93
2018-08-09T06:25:21.177Z,14.83
2018-08-09T06:27:53.449Z,14.13
2018-08-09T06:30:21.858Z,21.03
2018-08-09T06:32:51.294Z,14.87
2018-08-09T06:35:19.790Z,14.43
2018-08-09T06:37:48.241Z,14.90
2018-08-09T06:40:16.674Z,14.00
2018-08-09T06:42:45.519Z,13.77
2018-08-09T06:45:13.899Z,15.00
2018-08-09T06:47:42.319Z,14.67
2018-08-09T06:50:11.681Z,14.13
2018-08-09T06:52:40.060Z,13.30
2018-08-09T06:55:08.443Z,13.83
2018-08-09T06:57:37.195Z,14.77
2018-08-09T07:00:08.769Z,15.53
2018-08-09T07:02:37.425Z,16.47
2018-08-09T07:05:06.002Z,17.83
2018-08-09T07:07:34.935Z,16.50
2018-08-09T07:10:09.807Z,15.93
2018-08-09T07:12:38.632Z,15.97
2018-08-09T07:15:10.760Z,15.30
2018-08-09T07:17:39.879Z,15.47
2018-08-09T07:20:09.619Z,14.37
2018-08-09T07:22:42.671Z,13.67
2018-08-09T07:25:15.079Z,14.23
2018-08-09T07:27:46.874Z,13.63
2018-08-09T07:30:15.437Z,14.57
2018-08-09T07:32:45.087Z,14.47
2018-08-09T07:35:14.175Z,14.13
2018-08-09T07:37:42.747Z,14.00
2018-08-09T07:40:12.735Z,12.33
2018-08-09T07:42:42.172Z,12.73
2018-08-09T07:45:12.111Z,12.43
2018-08-09T07:47:42.867Z,12.23
2018-08-09T07:50:11.667Z,12.17
2018-08-09T07:52:40.180Z,11.67
2018-08-09T07:55:10.046Z,12.27
2018-08-09T07:57:39.000Z,11.40
2018-08-09T08:00:10.098Z,12.10
2018-08-09T08:02:39.170Z,11.63
2018-08-09T08:05:07.944Z,12.30
2018-08-09T08:07:37.768Z,11.77
2018-08-09T08:10:07.463Z,12.07
2018-08-09T08:12:36.020Z,11.83
2018-08-09T08:15:05.977Z,11.30
2018-08-09T08:17:34.421Z,11.93
2018-08-09T08:20:02.898Z,12.10
2018-08-09T08:22:31.441Z,11.80
2018-08-09T08:24:59.995Z,11.77
2018-08-09T08:27:28.663Z,11.83
2018-08-09T08:29:59.313Z,12.03
2018-08-09T08:32:28.104Z,11.57
2018-08-09T08:34:56.998Z,11.50
2018-08-09T08:37:28.858Z,11.53
2018-08-09T08:39:57.409Z,11.90
2018-08-09T08:42:25.968Z,12.73
2018-08-09T08:44:54.624Z,12.60
2018-08-09T08:47:23.284Z,12.27
2018-08-09T08:49:53.206Z,12.67
2018-08-09T08:52:22.882Z,13.13
2018-08-09T08:54:51.452Z,13.50
2018-08-09T08:57:20.008Z,14.87
2018-08-09T08:59:49.532Z,14.93
2018-08-09T09:02:18.095Z,16.27
2018-08-09T09:04:46.788Z,15.70
2018-08-09T09:07:15.444Z,14.80
2018-08-09T09:09:48.378Z,17.20
2018-08-09T09:12:17.136Z,18.80
2018-08-09T09:14:45.668Z,17.10
2018-08-09T09:17:14.676Z,18.27
2018-08-09T09:19:43.284Z,16.63
2018-08-09T09:22:12.988Z,17.70
2018-08-09T09:24:41.686Z,17.00
2018-08-09T09:27:10.576Z,16.03
2018-08-09T09:29:39.209Z,15.93
2018-08-09T09:32:07.782Z,16.53
2018-08-09T09:34:36.350Z,16.83
2018-08-09T09:37:05.214Z,16.83
2018-08-09T09:39:33.960Z,16.57
2018-08-09T09:42:02.513Z,16.03
2018-08-09T09:44:31.102Z,14.67
2018-08-09T09:46:59.693Z,15.40
2018-08-09T09:49:28.650Z,14.57
2018-08-09T09:51:57.400Z,15.80
2018-08-09T09:54:25.912Z,14.70
2018-08-09T09:56:54.434Z,15.37
2018-08-09T09:59:22.918Z,15.67
2018-08-09T10:01:51.552Z,15.37
2018-08-09T10:04:20.012Z,14.80
2018-08-09T10:06:48.483Z,15.40
2018-08-09T10:09:18.972Z,15.27
2018-08-09T10:11:47.571Z,16.10
2018-08-09T10:14:16.219Z,14.70
2018-08-09T10:16:44.682Z,15.77
2018-08-09T10:19:13.170Z,15.53
2018-08-09T10:21:41.810Z,15.63
2018-08-09T10:24:10.335Z,15.57
2018-08-09T10:26:38.863Z,14.63
2018-08-09T10:29:07.324Z,14.37
2018-08-09T10:31:35.855Z,13.87
2018-08-09T10:34:04.332Z,12.20
2018-08-09T10:36:32.914Z,13.30
2018-08-09T10:39:01.483Z,13.23
2018-08-09T10:41:31.031Z,12.43
2018-08-09T10:43:59.473Z,13.50
2018-08-09T10:46:27.976Z,13.07
2018-08-09T10:48:56.430Z,13.00
2018-08-09T10:51:24.790Z,12.83
2018-08-09T10:53:53.292Z,14.10
2018-08-09T10:56:21.676Z,13.67
2018-08-09T10:58:50.501Z,14.37
2018-08-09T11:01:18.972Z,14.83
2018-08-09T11:03:47.395Z,14.10
2018-08-09T11:06:19.419Z,14.23
2018-08-09T11:08:47.866Z,14.33
2018-08-09T11:11:16.354Z,15.47
2018-08-09T11:13:45.751Z,15.17
2018-08-09T11:16:15.152Z,15.77
2018-08-09T11:18:44.726Z,17.73
2018-08-09T11:21:14.843Z,16.57
2018-08-09T11:23:43.721Z,19.40
2018-08-09T11:26:12.457Z,18.60
2018-08-09T11:28:41.224Z,20.07
2018-08-09T11:31:11.980Z,21.27
2018-08-09T11:33:41.706Z,23.63
2018-08-09T11:36:10.298Z,22.27
2018-08-09T11:38:39.037Z,25.73
2018-08-09T11:41:08.184Z,23.63
2018-08-09T11:43:36.747Z,22.33
2018-08-09T11:46:05.323Z,24.23
2018-08-09T11:48:33.921Z,23.80
2018-08-09T11:51:02.412Z,24.90
2018-08-09T11:53:30.866Z,24.77
2018-08-09T11:55:59.372Z,21.77
2018-08-09T11:58:28.197Z,23.20
2018-08-09T12:00:56.688Z,22.47
2018-08-09T12:03:25.221Z,22.47
2018-08-09T12:05:53.673Z,22.20
2018-08-09T12:08:28.947Z,25.40
2018-08-09T12:10:58.548Z,26.73
2018-08-09T12:13:27.254Z,26.23
2018-08-09T12:15:55.708Z,26.40
2018-08-09T12:18:24.416Z,26.50
2018-08-09T12:20:54.839Z,26.00
2018-08-09T12:23:38.992Z,26.67
2018-08-09T12:26:08.118Z,25.93
2018-08-09T12:28:36.882Z,27.60
2018-08-09T12:31:30.521Z,27.33
2018-08-09T12:34:42.366Z,23.37
2018-08-09T12:37:13.892Z,24.83
2018-08-09T12:39:42.557Z,24.73
2018-08-09T12:42:11.327Z,27.50
2018-08-09T12:44:39.831Z,29.17
2018-08-09T12:47:08.861Z,29.27
2018-08-09T12:49:37.440Z,28.27
2018-08-09T12:52:08.285Z,27.57
2018-08-09T12:54:37.609Z,28.57
2018-08-09T12:57:06.593Z,28.87
2018-08-09T12:59:35.207Z,28.13
2018-08-09T13:02:03.737Z,28.43
2018-08-09T13:04:32.297Z,27.30
2018-08-09T13:07:01.137Z,29.97
2018-08-09T13:09:29.625Z,30.67
2018-08-09T13:11:58.099Z,31.07
2018-08-09T13:14:26.762Z,28.37
2018-08-09T13:16:55.226Z,27.67
2018-08-09T13:19:23.697Z,29.13
2018-08-09T13:21:52.166Z,25.67
2018-08-09T13:24:20.639Z,25.37
2018-08-09T13:26:49.123Z,27.00
2018-08-09T13:29:17.571Z,26.47
2018-08-09T13:31:46.016Z,24.80
2018-08-09T13:34:14.528Z,24.40
2018-08-09T13:36:43.076Z,23.47
2018-08-09T13:39:13.462Z,23.97
2018-08-09T13:41:43.148Z,24.70
2018-08-09T13:44:12.250Z,25.00
2018-08-09T13:46:40.858Z,25.13
2018-08-09T13:49:09.358Z,25.93
2018-08-09T13:51:37.941Z,24.80
2018-08-09T13:54:06.789Z,24.37
2018-08-09T13:56:35.323Z,24.70
2018-08-09T13:59:04.254Z,26.10
2018-08-09T14:01:32.804Z,25.93
2018-08-09T14:04:01.449Z,26.43
2018-08-09T14:06:29.977Z,25.50
2018-08-09T14:08:58.431Z,25.43
2018-08-09T14:11:26.862Z,27.37
2018-08-09T14:13:55.410Z,28.57
2018-08-09T14:16:24.028Z,28.23
2018-08-09T14:18:52.502Z,31.23
2018-08-09T14:21:21.106Z,29.63
2018-08-09T14:23:49.821Z,29.00
2018-08-09T14:26:18.416Z,27.37
2018-08-09T14:28:46.899Z,28.47
2018-08-09T14:31:15.600Z,26.67
2018-08-09T14:33:44.116Z,26.47
2018-08-09T14:36:12.739Z,25.30
2018-08-09T14:38:41.386Z,26.40
2018-08-09T14:41:09.902Z,27.03
2018-08-09T14:43:38.437Z,27.20
2018-08-09T14:46:07.040Z,27.33
2018-08-09T14:48:35.628Z,25.87
2018-08-09T14:51:04.570Z,27.97
2018-08-09T14:53:33.199Z,27.97
2018-08-09T14:56:01.721Z,27.60
2018-08-09T14:58:30.286Z,29.57
2018-08-09T15:00:58.946Z,29.87
2018-08-09T15:03:27.525Z,29.77
2018-08-09T15:05:57.065Z,31.10
2018-08-09T15:08:25.630Z,28.50
2018-08-09T15:10:54.106Z,29.87
2018-08-09T15:13:22.649Z,29.93
2018-08-09T15:15:51.192Z,31.40
2018-08-09T15:18:19.743Z,28.90
2018-08-09T15:20:48.236Z,29.57
2018-08-09T15:23:16.736Z,31.13
2018-08-09T15:25:46.429Z,31.50
2018-08-09T15:28:14.908Z,33.40
2018-08-09T15:30:43.376Z,32.20
2018-08-09T15:33:11.820Z,32.93
2018-08-09T15:35:40.181Z,33.90
2018-08-09T15:38:08.723Z,34.47
2018-08-09T15:40:37.081Z,32.97
2018-08-09T15:43:05.516Z,34.83
2018-08-09T15:45:33.979Z,35.73
2018-08-09T15:48:02.402Z,36.53
2018-08-09T15:50:30.807Z,37.00
2018-08-09T15:53:00.477Z,36.53
2018-08-09T15:55:28.855Z,38.20
2018-08-09T15:57:57.288Z,38.57
2018-08-09T16:00:25.732Z,39.27
2018-08-09T16:02:54.186Z,38.30
2018-08-09T16:05:22.726Z,39.30
2018-08-09T16:07:51.396Z,37.83
2018-08-09T16:10:19.930Z,39.60
2018-08-09T16:12:48.714Z,34.30
2018-08-09T16:15:18.572Z,35.03
2018-08-09T16:17:48.072Z,35.10
2018-08-09T16:20:16.708Z,32.30
2018-08-09T16:22:45.836Z,31.87
2018-08-09T16:25:17.243Z,30.47
2018-08-09T16:27:47.094Z,29.83
2018-08-09T16:30:19.146Z,23.87
2018-08-09T16:32:47.696Z,23.40
2018-08-09T16:35:16.206Z,21.77
2018-08-09T16:37:45.603Z,19.50
2018-08-09T16:40:20.263Z,18.23
2018-08-09T16:42:48.889Z,15.13
2018-08-09T16:45:18.556Z,13.97
2018-08-09T16:47:47.227Z,14.33
2018-08-09T16:50:17.921Z,14.23
2018-08-09T16:52:49.540Z,13.27
2018-08-09T16:55:19.462Z,12.80
2018-08-09T16:57:48.602Z,13.13
2018-08-09T17:00:23.154Z,13.60
2018-08-09T17:02:52.897Z,12.33
2018-08-09T17:05:22.694Z,9.87
2018-08-09T17:07:51.297Z,8.17
2018-08-09T17:10:21.262Z,6.40
2018-08-09T17:12:52.337Z,7.30
2018-08-09T17:15:22.487Z,6.80
2018-08-09T17:17:51.119Z,6.03
2018-08-09T17:20:22.328Z,6.60
2018-08-09T17:22:51.335Z,6.03
2018-08-09T17:25:21.018Z,5.07
2018-08-09T17:27:50.122Z,4.40
2018-08-09T17:30:20.865Z,4.27
2018-08-09T17:32:49.427Z,4.00
2018-08-09T17:35:18.473Z,3.70
2018-08-09T17:37:47.100Z,3.73
2018-08-09T17:40:18.104Z,3.47
2018-08-09T17:42:48.007Z,3.37
2018-08-09T17:45:16.764Z,3.40
2018-08-09T17:47:45.663Z,3.17
2018-08-09T17:50:15.873Z,3.30
2018-08-09T17:52:44.991Z,3.10
2018-08-09T17:55:14.537Z,3.20
2018-08-09T17:57:43.811Z,2.90
2018-08-09T18:00:15.969Z,2.87
2018-08-09T18:02:44.629Z,2.70
2018-08-09T18:05:13.256Z,3.10
2018-08-09T18:07:41.997Z,2.80
2018-08-09T18:10:21.657Z,3.00
2018-08-09T18:12:50.335Z,3.70
2018-08-09T18:15:19.564Z,3.80
2018-08-09T18:17:48.345Z,4.20
2018-08-09T18:20:18.282Z,4.27
2018-08-09T18:22:46.822Z,4.17
2018-08-09T18:25:16.138Z,5.10
2018-08-09T18:27:44.649Z,4.77
2018-08-09T18:30:15.048Z,5.30
2018-08-09T18:32:43.539Z,5.77
2018-08-09T18:35:14.333Z,5.70
2018-08-09T18:37:43.097Z,6.20
2018-08-09T18:40:17.425Z,6.53
2018-08-09T18:42:46.318Z,6.23
2018-08-09T18:45:14.821Z,6.53
2018-08-09T18:47:43.269Z,6.17
2018-08-09T18:50:14.031Z,5.73
2018-08-09T18:52:42.695Z,5.47
2018-08-09T18:55:11.953Z,5.90
2018-08-09T18:57:40.606Z,6.20
2018-08-09T19:00:14.941Z,6.10
2018-08-09T19:02:43.871Z,5.67
2018-08-09T19:05:12.566Z,5.97
2018-08-09T19:07:41.106Z,5.40
2018-08-09T19:10:11.753Z,5.73
2018-08-09T19:12:40.397Z,6.00
2018-08-09T19:15:10.239Z,6.47
2018-08-09T19:17:39.023Z,7.50
2018-08-09T19:20:14.930Z,8.47
2018-08-09T19:22:44.881Z,10.10
2018-08-09T19:25:16.736Z,9.83
2018-08-09T19:27:45.367Z,10.83
2018-08-09T19:30:15.379Z,11.53
2018-08-09T19:32:44.015Z,11.90
2018-08-09T19:35:14.177Z,12.63
2018-08-09T19:37:42.746Z,11.67
2018-08-09T19:40:13.883Z,12.03
2018-08-09T19:42:43.908Z,13.10
2018-08-09T19:48:16.166Z,12.10
2018-08-09T19:50:53.692Z,11.57
2018-08-09T19:53:30.015Z,10.17
2018-08-09T20:03:00.066Z,4.40
2018-08-09T20:05:33.815Z,4.43
2018-08-09T20:08:17.056Z,4.77
2018-08-09T20:10:48.025Z,4.63
2018-08-09T20:13:18.377Z,4.80
2018-08-09T20:15:48.873Z,4.90
2018-08-09T20:18:23.455Z,4.63
2018-08-09T20:20:52.448Z,5.90
2018-08-09T20:23:21.357Z,5.87
2018-08-09T20:25:53.472Z,5.50
2018-08-09T20:28:23.423Z,5.87
2018-08-09T20:30:53.549Z,6.40
2018-08-09T20:33:22.933Z,6.27
2018-08-09T20:35:51.476Z,6.37
2018-08-09T20:38:22.128Z,6.70
2018-08-09T20:40:50.964Z,6.33
2018-08-09T20:43:19.683Z,7.17
2018-08-09T20:45:48.376Z,7.67
2018-08-09T20:48:17.305Z,8.13
2018-08-09T20:50:45.938Z,9.10
2018-08-09T20:53:14.853Z,9.90
2018-08-09T20:55:43.935Z,10.67
2018-08-09T20:58:12.533Z,13.37
2018-08-09T21:00:42.166Z,14.30
2018-08-09T21:03:10.639Z,14.83
2018-08-09T21:05:42.025Z,15.77
2018-08-09T21:08:10.581Z,15.00
2018-08-09T21:10:40.100Z,15.40
2018-08-09T21:13:08.564Z,14.03
2018-08-09T21:15:38.894Z,8.03
2018-08-09T21:18:07.677Z,4.50
2018-08-09T21:20:36.072Z,3.40
2018-08-09T21:23:06.540Z,2.20
2018-08-09T21:25:41.109Z,1.80
2018-08-09T21:28:11.610Z,1.73
2018-08-09T21:30:41.915Z,1.70
2018-08-09T21:33:13.666Z,2.07
2018-08-09T21:35:42.247Z,1.70
2018-08-09T21:38:12.555Z,1.80
2018-08-09T21:40:41.119Z,1.60
2018-08-09T21:43:12.449Z,1.40
2018-08-09T21:45:41.710Z,1.70
2018-08-09T21:48:10.415Z,1.80
2018-08-09T21:50:39.779Z,1.97
2018-08-09T21:53:09.081Z,1.97
2018-08-09T21:55:37.495Z,1.90
2018-08-09T21:58:06.009Z,1.90
2018-08-09T22:00:53.131Z,1.90
2018-08-09T22:03:24.111Z,2.30
2018-08-09T22:05:57.979Z,2.30
2018-08-09T22:08:32.492Z,2.27
2018-08-09T22:11:07.642Z,2.10
2018-08-09T22:13:41.679Z,3.17
2018-08-09T22:16:15.450Z,2.50
2018-08-09T22:18:49.108Z,2.50
2018-08-09T22:21:22.958Z,2.57
2018-08-09T22:23:51.414Z,2.30
2018-08-09T22:26:19.911Z,2.53
2018-08-09T22:28:48.383Z,2.93
2018-08-09T22:31:16.961Z,3.10
2018-08-09T22:33:45.717Z,2.80
2018-08-09T22:36:14.284Z,2.60
2018-08-09T22:38:42.726Z,2.70
2018-08-09T22:41:13.779Z,2.63
2018-08-09T22:43:42.898Z,2.63
2018-08-09T22:46:11.439Z,2.60
2018-08-09T22:48:39.917Z,2.83
2018-08-09T22:51:08.394Z,2.80
2018-08-09T22:53:36.888Z,3.00
2018-08-09T22:56:05.330Z,2.70
2018-08-09T22:58:34.200Z,3.27
2018-08-09T23:01:02.580Z,2.50
2018-08-09T23:03:31.006Z,2.27
2018-08-09T23:05:59.500Z,2.83
2018-08-09T23:08:27.934Z,2.40
2018-08-09T23:10:56.371Z,2.77
2018-08-09T23:13:24.848Z,2.77
2018-08-09T23:15:53.251Z,2.50
2018-08-09T23:18:21.695Z,2.80
2018-08-09T23:20:50.392Z,2.63
2018-08-09T23:23:18.823Z,2.70
2018-08-09T23:25:47.262Z,2.80
2018-08-09T23:28:15.736Z,2.50
2018-08-09T23:30:45.209Z,2.27
2018-08-09T23:33:13.635Z,2.47
2018-08-09T23:35:42.077Z,2.53
2018-08-09T23:38:10.467Z,2.80
2018-08-09T23:40:38.875Z,2.70
2018-08-09T23:43:07.315Z,3.20
2018-08-09T23:45:35.777Z,2.80
2018-08-09T23:48:04.212Z,2.73
2018-08-09T23:50:32.598Z,2.60
2018-08-09T23:53:00.980Z,2.33
2018-08-09T23:55:29.392Z,2.27
2018-08-09T23:57:57.860Z,2.70
